createdAt,value
2018-06-21T00:01:15.776Z,94.65
2018-06-21T00:03:45.045Z,94.92
2018-06-21T00:08:52.670Z,95.42
2018-06-21T00:11:21.726Z,95.39
2018-06-21T00:13:51.013Z,96.08
2018-06-21T00:16:20.201Z,95.74
2018-06-21T00:18:49.352Z,95.88
2018-06-21T00:21:18.607Z,95.84
2018-06-21T00:23:54.146Z,95.65
2018-06-21T00:26:23.325Z,95.61
2018-06-21T00:28:52.375Z,96.11
2018-06-21T00:31:21.611Z,95.99
2018-06-21T00:33:50.807Z,96.14
2018-06-21T00:36:20.138Z,96.33
2018-06-21T00:38:49.226Z,96.88
2018-06-21T00:41:18.400Z,96.81
2018-06-21T00:43:47.614Z,97.78
2018-06-21T00:46:16.870Z,97.70
2018-06-21T00:48:46.028Z,97.25
2018-06-21T00:51:15.406Z,97.18
2018-06-21T00:53:44.681Z,97.78
2018-06-21T00:56:19.287Z,98.18
2018-06-21T00:58:49.034Z,98.00
2018-06-21T01:01:18.632Z,98.02
2018-06-21T01:03:48.066Z,97.87
2018-06-21T01:06:17.262Z,98.12
2018-06-21T01:08:46.430Z,98.38
2018-06-21T01:11:15.465Z,98.27
2018-06-21T01:13:44.810Z,98.96
2018-06-21T01:16:14.037Z,98.63
2018-06-21T01:18:43.150Z,98.87
2018-06-21T01:21:13.930Z,99.21
2018-06-21T01:23:43.386Z,98.91
2018-06-21T01:26:12.579Z,99.79
2018-06-21T01:28:41.652Z,99.81
2018-06-21T01:31:10.874Z,100.00
2018-06-21T01:33:39.993Z,99.53
2018-06-21T01:36:09.263Z,100.00
2018-06-21T01:38:38.469Z,100.00
2018-06-21T01:41:07.555Z,99.75
2018-06-21T01:43:36.865Z,100.00
2018-06-21T01:46:06.175Z,100.00
2018-06-21T01:48:35.315Z,100.00
2018-06-21T01:51:04.565Z,100.00
2018-06-21T01:53:33.879Z,100.00
2018-06-21T01:56:03.110Z,100.00
2018-06-21T01:58:32.546Z,100.00
2018-06-21T02:01:01.974Z,100.00
2018-06-21T02:03:30.927Z,100.00
2018-06-21T02:06:00.167Z,100.00
2018-06-21T02:08:29.191Z,100.00
2018-06-21T02:10:58.545Z,100.00
2018-06-21T02:13:27.624Z,100.00
2018-06-21T02:15:57.106Z,100.00
2018-06-21T02:18:26.306Z,100.00
2018-06-21T02:20:55.547Z,100.00
2018-06-21T02:23:24.713Z,100.00
2018-06-21T02:25:55.701Z,100.00
2018-06-21T02:28:24.643Z,100.00
2018-06-21T02:30:53.890Z,100.00
2018-06-21T02:33:23.273Z,100.00
2018-06-21T02:35:52.479Z,100.00
2018-06-21T02:38:21.632Z,100.00
2018-06-21T02:40:50.974Z,100.00
2018-06-21T02:43:20.229Z,100.00
2018-06-21T02:45:49.484Z,100.00
2018-06-21T02:48:18.551Z,100.00
2018-06-21T02:50:47.798Z,100.00
2018-06-21T02:53:16.992Z,100.00
2018-06-21T02:55:46.364Z,100.00
2018-06-21T02:58:15.510Z,100.00
2018-06-21T03:00:44.762Z,100.00
2018-06-21T03:03:13.917Z,100.00
2018-06-21T03:05:43.208Z,100.00
2018-06-21T03:08:12.606Z,100.00
2018-06-21T03:10:41.754Z,100.00
2018-06-21T03:13:10.954Z,100.00
2018-06-21T03:15:40.371Z,100.00
2018-06-21T03:18:09.632Z,98.35
2018-06-21T03:20:38.842Z,97.74
2018-06-21T03:23:08.018Z,99.15
2018-06-21T03:25:37.346Z,100.00
2018-06-21T03:28:06.437Z,100.00
2018-06-21T03:30:35.650Z,100.00
2018-06-21T03:33:05.035Z,100.00
2018-06-21T03:35:34.261Z,100.00
2018-06-21T03:38:03.795Z,100.00
2018-06-21T03:40:33.039Z,100.00
2018-06-21T03:43:02.239Z,100.00
2018-06-21T03:45:31.487Z,100.00
2018-06-21T03:48:01.106Z,100.00
2018-06-21T03:50:30.262Z,100.00
2018-06-21T03:52:59.798Z,100.00
2018-06-21T03:55:29.054Z,100.00
2018-06-21T03:57:58.111Z,100.00
2018-06-21T04:03:22.903Z,99.83
2018-06-21T04:05:52.094Z,99.75
2018-06-21T04:08:21.333Z,99.93
2018-06-21T04:10:49.982Z,99.83
2018-06-21T04:13:18.873Z,99.58
2018-06-21T04:15:47.525Z,98.48
2018-06-21T04:18:16.327Z,98.73
2018-06-21T04:20:45.166Z,98.33
2018-06-21T04:23:14.026Z,96.12
2018-06-21T04:25:42.937Z,97.11
2018-06-21T04:28:11.637Z,94.15
2018-06-21T04:30:40.671Z,92.61
2018-06-21T04:33:09.442Z,92.20
2018-06-21T04:35:38.292Z,92.35
2018-06-21T04:38:07.035Z,90.10
2018-06-21T04:40:35.747Z,90.15
2018-06-21T04:43:04.611Z,91.13
2018-06-21T04:45:33.649Z,89.35
2018-06-21T04:48:04.086Z,87.47
2018-06-21T04:50:32.864Z,86.60
2018-06-21T04:53:01.532Z,85.89
2018-06-21T04:55:30.492Z,86.55
2018-06-21T04:57:59.323Z,83.18
2018-06-21T05:00:28.231Z,82.02
2018-06-21T05:02:57.349Z,81.42
2018-06-21T05:05:26.066Z,81.26
2018-06-21T05:07:54.730Z,80.50
2018-06-21T05:10:23.859Z,79.07
2018-06-21T05:12:52.865Z,78.60
2018-06-21T05:15:21.786Z,78.78
2018-06-21T05:17:51.426Z,77.05
2018-06-21T05:20:20.568Z,76.69
2018-06-21T05:22:49.875Z,74.80
2018-06-21T05:25:20.492Z,75.39
2018-06-21T05:27:50.076Z,74.03
2018-06-21T05:30:20.459Z,73.95
2018-06-21T05:32:49.267Z,73.86
2018-06-21T05:35:18.374Z,73.45
2018-06-21T05:37:47.223Z,72.39
2018-06-21T05:44:01.566Z,70.76
2018-06-21T05:46:30.810Z,70.35
2018-06-21T05:48:59.986Z,69.77
2018-06-21T05:51:28.776Z,69.94
2018-06-21T05:53:57.370Z,68.40
2018-06-21T05:56:26.351Z,67.91
2018-06-21T05:58:55.328Z,67.77
2018-06-21T06:01:24.030Z,67.70
2018-06-21T06:03:56.234Z,66.77
2018-06-21T06:06:26.029Z,67.46
2018-06-21T06:08:54.801Z,67.06
2018-06-21T06:11:23.779Z,65.16
2018-06-21T06:13:52.392Z,66.37
2018-06-21T06:16:21.075Z,66.05
2018-06-21T06:18:49.955Z,64.16
2018-06-21T06:21:18.618Z,63.29
2018-06-21T06:23:47.394Z,64.37
2018-06-21T06:26:16.079Z,64.85
2018-06-21T06:28:45.244Z,63.61
2018-06-21T06:31:13.941Z,63.96
2018-06-21T06:33:42.738Z,63.98
2018-06-21T06:36:11.379Z,64.87
2018-06-21T06:38:40.085Z,65.12
2018-06-21T06:41:08.859Z,64.98
2018-06-21T06:43:37.562Z,64.74
2018-06-21T06:46:06.644Z,63.52
2018-06-21T06:48:35.663Z,62.96
2018-06-21T06:51:04.883Z,63.26
2018-06-21T06:53:33.470Z,63.09
2018-06-21T06:56:02.481Z,61.58
2018-06-21T06:58:31.198Z,63.06
2018-06-21T07:01:00.680Z,61.50
2018-06-21T07:03:29.554Z,60.95
2018-06-21T07:05:58.436Z,61.72
2018-06-21T07:08:27.198Z,61.69
2018-06-21T07:10:55.942Z,62.23
2018-06-21T07:13:24.748Z,60.39
2018-06-21T07:15:53.623Z,58.91
2018-06-21T07:18:22.920Z,58.92
2018-06-21T07:20:52.036Z,58.43
2018-06-21T07:23:20.723Z,57.33
2018-06-21T07:25:49.592Z,57.02
2018-06-21T07:28:18.464Z,55.29
2018-06-21T07:30:47.812Z,55.61
2018-06-21T07:33:17.316Z,55.77
2018-06-21T07:35:46.062Z,55.49
2018-06-21T07:38:14.686Z,54.98
2018-06-21T07:40:43.548Z,53.47
2018-06-21T07:43:12.625Z,52.46
2018-06-21T07:45:42.511Z,53.22
2018-06-21T07:48:11.211Z,53.38
2018-06-21T07:50:40.120Z,52.52
2018-06-21T07:53:09.442Z,52.82
2018-06-21T07:55:38.332Z,52.15
2018-06-21T07:58:07.020Z,51.97
2018-06-21T08:00:36.407Z,52.23
2018-06-21T08:03:05.447Z,52.09
2018-06-21T08:05:34.151Z,51.72
2018-06-21T08:08:02.803Z,52.72
2018-06-21T08:10:31.570Z,51.95
2018-06-21T08:13:00.546Z,53.54
2018-06-21T08:15:30.107Z,52.88
2018-06-21T08:17:58.735Z,53.16
2018-06-21T08:20:27.547Z,51.89
2018-06-21T08:22:56.385Z,51.24
2018-06-21T08:25:25.671Z,50.40
2018-06-21T08:27:55.942Z,51.21
2018-06-21T08:30:24.848Z,51.13
2018-06-21T08:32:53.571Z,51.68
2018-06-21T08:35:22.622Z,51.78
2018-06-21T08:37:51.503Z,52.00
2018-06-21T08:40:20.446Z,52.23
2018-06-21T08:42:49.076Z,52.85
2018-06-21T08:45:17.986Z,51.59
2018-06-21T08:47:47.075Z,51.66
2018-06-21T08:50:15.863Z,53.08
2018-06-21T08:52:44.635Z,51.80
2018-06-21T08:55:13.546Z,51.13
2018-06-21T08:57:42.651Z,51.15
2018-06-21T09:00:11.519Z,49.81
2018-06-21T09:02:40.794Z,49.90
2018-06-21T09:05:11.790Z,49.92
2018-06-21T09:07:43.544Z,49.12
2018-06-21T09:10:13.751Z,49.59
2018-06-21T09:12:42.947Z,48.62
2018-06-21T09:15:12.291Z,47.62
2018-06-21T09:17:40.903Z,48.62
2018-06-21T09:20:09.914Z,48.13
2018-06-21T09:22:38.753Z,48.20
2018-06-21T09:25:07.808Z,48.56
2018-06-21T09:27:36.882Z,47.96
2018-06-21T09:30:06.029Z,46.31
2018-06-21T09:32:35.080Z,45.49
2018-06-21T09:35:03.996Z,43.83
2018-06-21T09:37:37.983Z,44.03
2018-06-21T09:40:12.254Z,44.25
2018-06-21T09:42:46.059Z,42.95
2018-06-21T09:45:20.427Z,43.77
2018-06-21T09:47:54.247Z,43.04
2018-06-21T09:50:23.349Z,43.27
2018-06-21T09:52:52.220Z,42.75
2018-06-21T09:55:21.326Z,42.45
2018-06-21T09:57:50.306Z,42.14
2018-06-21T10:00:24.558Z,41.83
2018-06-21T10:02:53.510Z,40.30
2018-06-21T10:05:22.611Z,39.94
2018-06-21T10:07:52.032Z,40.59
2018-06-21T10:10:21.057Z,39.81
2018-06-21T10:12:49.905Z,40.74
2018-06-21T10:15:18.731Z,40.45
2018-06-21T10:17:47.674Z,39.21
2018-06-21T10:20:16.467Z,40.17
2018-06-21T10:22:45.443Z,40.22
2018-06-21T10:25:14.254Z,40.34
2018-06-21T10:27:43.034Z,40.58
2018-06-21T10:30:11.872Z,40.41
2018-06-21T10:32:40.813Z,42.37
2018-06-21T10:35:09.762Z,49.19
2018-06-21T10:37:38.397Z,52.36
2018-06-21T10:40:07.188Z,55.94
2018-06-21T10:42:36.001Z,58.58
2018-06-21T10:45:05.418Z,60.64
2018-06-21T10:47:33.997Z,61.65
2018-06-21T10:50:03.060Z,62.91
2018-06-21T10:52:31.823Z,70.91
2018-06-21T10:55:00.620Z,79.40
2018-06-21T10:57:29.415Z,85.73
2018-06-21T10:59:58.040Z,88.64
2018-06-21T11:02:33.554Z,89.63
2018-06-21T11:05:02.595Z,83.77
2018-06-21T11:07:31.633Z,85.09
2018-06-21T11:10:00.799Z,83.27
2018-06-21T11:12:29.491Z,80.27
2018-06-21T11:14:58.314Z,87.15
2018-06-21T11:17:27.285Z,81.86
2018-06-21T11:19:56.202Z,79.52
2018-06-21T11:22:24.791Z,80.36
2018-06-21T11:24:53.864Z,80.02
2018-06-21T11:27:22.624Z,76.39
2018-06-21T11:29:51.309Z,77.64
2018-06-21T11:32:20.331Z,76.86
2018-06-21T11:34:49.076Z,78.80
2018-06-21T11:37:18.584Z,73.37
2018-06-21T11:39:47.628Z,74.05
2018-06-21T11:42:16.542Z,67.16
2018-06-21T11:44:45.287Z,65.87
2018-06-21T11:47:13.946Z,68.97
2018-06-21T11:49:42.571Z,70.86
2018-06-21T11:52:11.898Z,68.24
2018-06-21T11:54:40.940Z,71.54
2018-06-21T11:57:09.786Z,74.41
2018-06-21T11:59:38.578Z,76.50
2018-06-21T12:02:07.452Z,76.90
2018-06-21T12:04:36.023Z,76.46
2018-06-21T12:07:05.065Z,78.45
2018-06-21T12:09:33.708Z,79.22
2018-06-21T12:12:02.582Z,81.65
2018-06-21T12:14:31.315Z,81.19
2018-06-21T12:17:00.263Z,82.37
2018-06-21T12:19:28.890Z,81.42
2018-06-21T12:21:57.543Z,82.44
2018-06-21T12:24:26.411Z,82.70
2018-06-21T12:26:55.405Z,83.67
2018-06-21T12:29:24.219Z,85.45
2018-06-21T12:31:52.841Z,84.32
2018-06-21T12:34:21.615Z,84.78
2018-06-21T12:36:50.474Z,87.97
2018-06-21T12:39:19.367Z,90.65
2018-06-21T12:41:48.158Z,90.49
2018-06-21T12:44:16.937Z,93.17
2018-06-21T12:46:45.622Z,95.10
2018-06-21T12:49:14.745Z,96.92
2018-06-21T12:51:43.517Z,94.40
2018-06-21T12:54:12.458Z,98.67
2018-06-21T12:56:41.070Z,95.88
2018-06-21T12:59:09.826Z,96.44
2018-06-21T13:01:38.877Z,96.95
2018-06-21T13:04:07.970Z,95.83
2018-06-21T13:06:37.681Z,95.68
2018-06-21T13:09:17.614Z,93.45
2018-06-21T13:12:55.940Z,92.51
2018-06-21T13:15:25.007Z,89.04
2018-06-21T13:17:56.191Z,84.18
2018-06-21T13:20:25.783Z,82.96
2018-06-21T13:22:54.659Z,79.85
2018-06-21T13:25:23.400Z,78.17
2018-06-21T13:27:52.180Z,75.87
2018-06-21T13:30:21.047Z,80.32
2018-06-21T13:32:50.131Z,79.26
2018-06-21T13:35:18.912Z,80.90
2018-06-21T13:37:47.495Z,78.16
2018-06-21T13:40:16.409Z,84.58
2018-06-21T13:42:45.504Z,85.67
2018-06-21T13:45:14.262Z,82.01
2018-06-21T13:47:42.922Z,82.34
2018-06-21T13:50:11.783Z,81.17
2018-06-21T13:52:40.643Z,83.08
2018-06-21T13:55:09.440Z,84.46
2018-06-21T13:57:38.216Z,86.11
2018-06-21T14:00:07.920Z,83.58
2018-06-21T14:02:36.538Z,83.79
2018-06-21T14:05:05.298Z,83.48
2018-06-21T14:07:34.391Z,77.60
2018-06-21T14:10:03.460Z,70.72
2018-06-21T14:12:32.264Z,70.00
2018-06-21T14:15:00.929Z,70.29
2018-06-21T14:17:29.785Z,72.73
2018-06-21T14:19:58.646Z,70.72
2018-06-21T14:22:27.747Z,70.08
2018-06-21T14:24:56.322Z,68.32
2018-06-21T14:27:25.130Z,68.79
2018-06-21T14:29:54.207Z,64.26
2018-06-21T14:32:23.205Z,63.47
2018-06-21T14:34:52.336Z,61.39
2018-06-21T14:37:21.297Z,59.18
2018-06-21T14:39:49.899Z,59.02
2018-06-21T14:42:18.726Z,61.08
2018-06-21T14:44:47.777Z,57.50
2018-06-21T14:47:16.740Z,59.34
2018-06-21T14:49:45.791Z,56.67
2018-06-21T14:52:14.599Z,58.51
2018-06-21T14:54:43.408Z,56.01
2018-06-21T14:57:12.462Z,56.58
2018-06-21T14:59:41.139Z,56.72
2018-06-21T15:02:10.151Z,57.71
2018-06-21T15:04:38.923Z,57.67
2018-06-21T15:07:08.179Z,54.06
2018-06-21T15:09:36.891Z,56.45
2018-06-21T15:12:05.668Z,55.15
2018-06-21T15:14:34.326Z,52.94
2018-06-21T15:17:03.143Z,51.95
2018-06-21T15:19:32.062Z,53.54
2018-06-21T15:22:00.684Z,53.15
2018-06-21T15:24:29.405Z,51.34
2018-06-21T15:26:58.156Z,51.84
2018-06-21T15:29:26.822Z,48.13
2018-06-21T15:31:55.564Z,46.28
2018-06-21T15:34:24.330Z,42.38
2018-06-21T15:36:53.444Z,43.01
2018-06-21T15:39:23.781Z,47.95
2018-06-21T15:41:52.430Z,46.51
2018-06-21T15:44:21.129Z,39.92
2018-06-21T15:46:50.059Z,41.54
2018-06-21T15:49:18.917Z,39.91
2018-06-21T15:51:47.709Z,38.43
2018-06-21T15:54:16.362Z,37.56
2018-06-21T15:56:45.349Z,43.45
2018-06-21T15:59:14.470Z,40.14
2018-06-21T16:01:43.594Z,42.93
2018-06-21T16:04:12.475Z,43.16
2018-06-21T16:06:41.164Z,43.84
2018-06-21T16:09:11.079Z,43.86
2018-06-21T16:11:40.186Z,42.18
2018-06-21T16:14:09.052Z,46.20
2018-06-21T16:16:37.839Z,46.73
2018-06-21T16:19:06.541Z,45.89
2018-06-21T16:21:35.314Z,46.37
2018-06-21T16:24:04.123Z,48.42
2018-06-21T16:26:33.078Z,50.80
2018-06-21T16:29:02.299Z,49.46
2018-06-21T16:31:31.014Z,52.38
2018-06-21T16:33:59.807Z,51.15
2018-06-21T16:36:28.664Z,50.01
2018-06-21T16:38:57.527Z,46.69
2018-06-21T16:41:26.704Z,46.58
2018-06-21T16:43:55.529Z,48.03
2018-06-21T16:46:24.421Z,48.55
2018-06-21T16:48:53.161Z,48.44
2018-06-21T16:51:22.015Z,47.79
2018-06-21T16:53:50.711Z,48.63
2018-06-21T16:56:19.834Z,46.73
2018-06-21T16:58:48.496Z,47.08
2018-06-21T17:01:17.251Z,49.37
2018-06-21T17:03:46.198Z,48.66
2018-06-21T17:06:15.153Z,48.22
2018-06-21T17:08:44.101Z,48.01
2018-06-21T17:11:12.835Z,49.65
2018-06-21T17:13:41.805Z,49.12
2018-06-21T17:16:10.620Z,49.95
2018-06-21T17:18:39.444Z,50.13
2018-06-21T17:21:08.495Z,50.90
2018-06-21T17:23:37.167Z,50.87
2018-06-21T17:26:06.172Z,54.41
2018-06-21T17:28:34.986Z,52.84
2018-06-21T17:31:03.691Z,53.31
2018-06-21T17:33:32.333Z,52.87
2018-06-21T17:36:01.228Z,54.56
2018-06-21T17:38:30.100Z,52.45
2018-06-21T17:40:59.624Z,53.34
2018-06-21T17:43:28.500Z,53.28
2018-06-21T17:45:57.370Z,53.29
2018-06-21T17:48:26.323Z,52.88
2018-06-21T17:50:55.391Z,52.91
2018-06-21T17:53:24.855Z,52.27
2018-06-21T17:55:54.463Z,52.86
2018-06-21T17:58:23.961Z,51.78
2018-06-21T18:00:53.721Z,52.60
2018-06-21T18:03:22.987Z,53.11
2018-06-21T18:05:52.314Z,54.17
2018-06-21T18:08:21.671Z,53.82
2018-06-21T18:10:51.390Z,54.46
2018-06-21T18:13:20.659Z,53.96
2018-06-21T18:15:50.137Z,55.06
2018-06-21T18:18:19.528Z,55.08
2018-06-21T18:20:49.029Z,55.76
2018-06-21T18:23:18.779Z,56.28
2018-06-21T18:25:48.578Z,53.37
2018-06-21T18:28:18.118Z,53.42
2018-06-21T18:30:47.663Z,52.96
2018-06-21T18:33:17.278Z,53.68
2018-06-21T18:35:46.890Z,53.67
2018-06-21T18:38:16.363Z,53.56
2018-06-21T18:40:45.911Z,54.22
2018-06-21T18:43:15.295Z,54.32
2018-06-21T18:45:44.815Z,54.82
2018-06-21T18:48:14.204Z,52.67
2018-06-21T18:50:43.754Z,54.28
2018-06-21T18:53:13.552Z,53.49
2018-06-21T18:55:43.199Z,54.28
2018-06-21T18:58:13.624Z,55.93
2018-06-21T19:00:43.218Z,56.54
2018-06-21T19:03:13.169Z,56.56
2018-06-21T19:05:42.783Z,56.37
2018-06-21T19:08:17.546Z,58.09
2018-06-21T19:10:52.388Z,58.15
2018-06-21T19:13:21.784Z,56.47
2018-06-21T19:15:51.446Z,58.96
2018-06-21T19:18:20.985Z,58.54
2018-06-21T19:20:50.345Z,58.39
2018-06-21T19:23:19.594Z,57.18
2018-06-21T19:25:49.044Z,57.81
2018-06-21T19:28:18.507Z,60.51
2018-06-21T19:30:47.963Z,59.89
2018-06-21T19:33:18.223Z,59.63
2018-06-21T19:35:47.744Z,59.23
2018-06-21T19:38:17.125Z,58.45
2018-06-21T19:40:46.593Z,59.45
2018-06-21T19:43:16.110Z,59.46
2018-06-21T19:45:45.369Z,59.92
2018-06-21T19:48:14.492Z,61.02
2018-06-21T19:50:43.637Z,60.95
2018-06-21T19:53:12.508Z,61.13
2018-06-21T19:55:41.846Z,62.10
2018-06-21T19:58:11.460Z,61.58
2018-06-21T20:00:41.131Z,60.99
2018-06-21T20:03:10.592Z,61.46
2018-06-21T20:05:39.904Z,62.62
2018-06-21T20:08:09.189Z,63.11
2018-06-21T20:10:38.501Z,63.48
2018-06-21T20:13:07.722Z,63.86
2018-06-21T20:15:49.721Z,64.92
2018-06-21T20:18:19.331Z,64.92
2018-06-21T20:20:48.560Z,64.56
2018-06-21T20:23:23.067Z,63.99
2018-06-21T20:25:53.709Z,66.84
2018-06-21T20:28:22.799Z,67.59
2018-06-21T20:30:52.219Z,65.39
2018-06-21T20:33:21.734Z,65.79
2018-06-21T20:35:51.083Z,66.94
2018-06-21T20:38:20.358Z,68.58
2018-06-21T20:40:49.484Z,66.57
2018-06-21T20:43:18.376Z,66.42
2018-06-21T20:45:47.459Z,65.83
2018-06-21T20:48:16.199Z,66.72
2018-06-21T20:50:45.438Z,66.68
2018-06-21T20:53:14.212Z,68.05
2018-06-21T20:55:44.167Z,66.86
2018-06-21T20:58:12.880Z,67.26
2018-06-21T21:00:41.543Z,66.91
2018-06-21T21:03:10.711Z,66.79
2018-06-21T21:05:39.818Z,68.09
2018-06-21T21:08:10.318Z,68.13
2018-06-21T21:10:39.240Z,67.69
2018-06-21T21:13:08.017Z,68.18
2018-06-21T21:15:37.631Z,68.17
2018-06-21T21:18:06.349Z,68.78
2018-06-21T21:20:35.295Z,68.59
2018-06-21T21:23:04.141Z,68.98
2018-06-21T21:25:32.887Z,69.08
2018-06-21T21:28:01.842Z,70.14
2018-06-21T21:30:31.030Z,69.78
2018-06-21T21:33:00.060Z,69.73
2018-06-21T21:35:28.847Z,69.95
2018-06-21T21:37:57.483Z,70.76
2018-06-21T21:40:26.122Z,70.70
2018-06-21T21:42:54.786Z,71.30
2018-06-21T21:45:23.743Z,71.46
2018-06-21T21:47:52.357Z,71.71
2018-06-21T21:50:21.293Z,71.41
2018-06-21T21:52:51.031Z,71.99
2018-06-21T21:55:19.894Z,71.67
2018-06-21T21:57:48.648Z,71.10
2018-06-21T22:00:40.159Z,71.73
2018-06-21T22:03:10.406Z,71.52
2018-06-21T22:05:40.091Z,71.72
2018-06-21T22:08:09.940Z,71.66
2018-06-21T22:10:39.443Z,72.35
2018-06-21T22:13:08.519Z,71.28
2018-06-21T22:15:37.779Z,71.24
2018-06-21T22:18:07.042Z,71.23
2018-06-21T22:20:36.535Z,71.21
2018-06-21T22:23:05.826Z,71.57
2018-06-21T22:25:35.117Z,71.18
2018-06-21T22:28:04.418Z,71.16
2018-06-21T22:30:33.766Z,71.31
2018-06-21T22:33:02.454Z,70.07
2018-06-21T22:35:31.107Z,69.84
2018-06-21T22:37:59.739Z,70.60
2018-06-21T22:40:28.488Z,69.82
2018-06-21T22:42:58.080Z,69.52
2018-06-21T22:45:27.339Z,70.30
2018-06-21T22:47:56.475Z,70.67
2018-06-21T22:50:25.571Z,70.10
2018-06-21T22:52:54.912Z,70.79
2018-06-21T22:55:24.375Z,70.79
2018-06-21T22:57:53.471Z,70.62
2018-06-21T23:00:22.541Z,70.76
2018-06-21T23:02:51.460Z,70.81
2018-06-21T23:05:20.237Z,71.07
2018-06-21T23:07:48.844Z,71.38
2018-06-21T23:10:17.631Z,71.95
2018-06-21T23:12:46.397Z,72.03
2018-06-21T23:15:15.524Z,71.96
2018-06-21T23:17:44.725Z,72.60
2018-06-21T23:20:15.041Z,72.61
2018-06-21T23:22:43.742Z,72.60
2018-06-21T23:25:13.846Z,72.83
2018-06-21T23:27:43.649Z,73.06
2018-06-21T23:30:12.673Z,73.06
2018-06-21T23:32:41.295Z,73.43
2018-06-21T23:35:10.268Z,72.90
2018-06-21T23:37:38.944Z,73.42
2018-06-21T23:40:07.816Z,74.00
2018-06-21T23:42:36.918Z,73.24
2018-06-21T23:45:05.580Z,73.79
2018-06-21T23:47:34.263Z,74.29
2018-06-21T23:50:02.990Z,74.83
2018-06-21T23:52:31.727Z,74.45
2018-06-21T23:55:00.280Z,74.95
2018-06-21T23:57:29.218Z,74.67
2018-06-21T23:59:57.914Z,74.93
